sensor_id;sensor_type;location;lat;lon;timestamp;temperature;humidity
27667;DHT22;15074;50.940;5.282;2022-07-06T00:00:32;12.50;99.90
27667;DHT22;15074;50.940;5.282;2022-07-06T00:02:58;12.40;99.90
27667;DHT22;15074;50.940;5.282;2022-07-06T00:05:24;12.30;99.90
27667;DHT22;15074;50.940;5.282;2022-07-06T00:07:50;12.30;99.90
27667;DHT22;15074;50.940;5.282;2022-07-06T00:10:15;12.30;99.90
27667;DHT22;15074;50.940;5.282;2022-07-06T00:12:41;12.20;99.90
27667;DHT22;15074;50.940;5.282;2022-07-06T00:15:07;12.10;99.90
27667;DHT22;15074;50.940;5.282;2022-07-06T00:17:32;12.10;99.90
27667;DHT22;15074;50.940;5.282;2022-07-06T00:19:58;12.00;99.90
27667;DHT22;15074;50.940;5.282;2022-07-06T00:22:23;11.80;99.90
27667;DHT22;15074;50.940;5.282;2022-07-06T00:24:49;11.80;99.90
27667;DHT22;15074;50.940;5.282;2022-07-06T00:27:15;11.70;99.90
27667;DHT22;15074;50.940;5.282;2022-07-06T00:29:40;11.60;99.90
27667;DHT22;15074;50.940;5.282;2022-07-06T00:32:10;11.40;99.90
27667;DHT22;15074;50.940;5.282;2022-07-06T00:34:36;11.40;99.90
27667;DHT22;15074;50.940;5.282;2022-07-06T00:37:01;11.60;99.90
27667;DHT22;15074;50.940;5.282;2022-07-06T00:39:27;11.80;99.90
27667;DHT22;15074;50.940;5.282;2022-07-06T00:41:55;12.00;99.90
27667;DHT22;15074;50.940;5.282;2022-07-06T00:44:21;12.10;99.90
27667;DHT22;15074;50.940;5.282;2022-07-06T00:46:47;12.20;99.90
27667;DHT22;15074;50.940;5.282;2022-07-06T00:49:12;12.30;99.90
27667;DHT22;15074;50.940;5.282;2022-07-06T00:51:58;12.40;99.90
27667;DHT22;15074;50.940;5.282;2022-07-06T00:54:25;12.40;99.90
27667;DHT22;15074;50.940;5.282;2022-07-06T00:56:51;12.60;99.90
27667;DHT22;15074;50.940;5.282;2022-07-06T00:59:18;12.70;99.90
27667;DHT22;15074;50.940;5.282;2022-07-06T01:01:43;12.70;99.90
27667;DHT22;15074;50.940;5.282;2022-07-06T01:04:09;12.60;99.90
27667;DHT22;15074;50.940;5.282;2022-07-06T01:06:35;12.50;99.90
27667;DHT22;15074;50.940;5.282;2022-07-06T01:09:01;12.30;99.90
27667;DHT22;15074;50.940;5.282;2022-07-06T01:11:27;12.20;99.90
27667;DHT22;15074;50.940;5.282;2022-07-06T01:13:54;12.00;99.90
27667;DHT22;15074;50.940;5.282;2022-07-06T01:16:21;11.90;99.90
27667;DHT22;15074;50.940;5.282;2022-07-06T01:18:47;11.70;99.90
27667;DHT22;15074;50.940;5.282;2022-07-06T01:21:14;11.60;99.90
27667;DHT22;15074;50.940;5.282;2022-07-06T01:23:45;11.50;99.90
27667;DHT22;15074;50.940;5.282;2022-07-06T01:26:13;11.40;99.90
27667;DHT22;15074;50.940;5.282;2022-07-06T01:28:39;11.40;99.90
27667;DHT22;15074;50.940;5.282;2022-07-06T01:31:05;11.40;99.90
27667;DHT22;15074;50.940;5.282;2022-07-06T01:33:31;11.40;99.90
27667;DHT22;15074;50.940;5.282;2022-07-06T01:35:57;11.30;99.90
27667;DHT22;15074;50.940;5.282;2022-07-06T01:38:22;11.30;99.90
27667;DHT22;15074;50.940;5.282;2022-07-06T01:40:48;11.30;99.90
27667;DHT22;15074;50.940;5.282;2022-07-06T01:43:13;11.30;99.90
27667;DHT22;15074;50.940;5.282;2022-07-06T01:45:39;11.30;99.90
27667;DHT22;15074;50.940;5.282;2022-07-06T01:48:08;11.30;99.90
27667;DHT22;15074;50.940;5.282;2022-07-06T01:50:33;11.30;99.90
27667;DHT22;15074;50.940;5.282;2022-07-06T01:53:00;11.40;99.90
27667;DHT22;15074;50.940;5.282;2022-07-06T01:55:25;11.60;99.90
27667;DHT22;15074;50.940;5.282;2022-07-06T01:57:51;11.60;99.90
27667;DHT22;15074;50.940;5.282;2022-07-06T02:00:16;11.80;99.90
27667;DHT22;15074;50.940;5.282;2022-07-06T02:02:42;12.00;99.90
27667;DHT22;15074;50.940;5.282;2022-07-06T02:05:08;12.00;99.90
27667;DHT22;15074;50.940;5.282;2022-07-06T02:07:33;12.20;99.90
27667;DHT22;15074;50.940;5.282;2022-07-06T02:09:59;12.30;99.90
27667;DHT22;15074;50.940;5.282;2022-07-06T02:12:25;12.30;99.90
27667;DHT22;15074;50.940;5.282;2022-07-06T02:14:50;12.30;99.90
27667;DHT22;15074;50.940;5.282;2022-07-06T02:17:16;12.20;99.90
27667;DHT22;15074;50.940;5.282;2022-07-06T02:19:41;12.20;99.90
27667;DHT22;15074;50.940;5.282;2022-07-06T02:22:07;12.10;99.90
27667;DHT22;15074;50.940;5.282;2022-07-06T02:24:32;12.10;99.90
27667;DHT22;15074;50.940;5.282;2022-07-06T02:26:58;12.20;99.90
27667;DHT22;15074;50.940;5.282;2022-07-06T02:29:24;12.30;99.90
27667;DHT22;15074;50.940;5.282;2022-07-06T02:31:51;12.30;99.90
27667;DHT22;15074;50.940;5.282;2022-07-06T02:34:16;12.30;99.90
27667;DHT22;15074;50.940;5.282;2022-07-06T02:36:42;12.40;99.90
27667;DHT22;15074;50.940;5.282;2022-07-06T02:39:08;12.50;99.90
27667;DHT22;15074;50.940;5.282;2022-07-06T02:41:33;12.60;99.90
27667;DHT22;15074;50.940;5.282;2022-07-06T02:43:59;12.70;99.90
27667;DHT22;15074;50.940;5.282;2022-07-06T02:46:24;12.70;99.90
27667;DHT22;15074;50.940;5.282;2022-07-06T02:48:50;12.50;99.90
27667;DHT22;15074;50.940;5.282;2022-07-06T02:51:16;12.20;99.90
27667;DHT22;15074;50.940;5.282;2022-07-06T02:53:41;11.90;99.90
27667;DHT22;15074;50.940;5.282;2022-07-06T02:56:07;11.70;99.90
27667;DHT22;15074;50.940;5.282;2022-07-06T02:58:32;11.70;99.90
27667;DHT22;15074;50.940;5.282;2022-07-06T03:00:58;11.60;99.90
27667;DHT22;15074;50.940;5.282;2022-07-06T03:03:24;11.50;99.90
27667;DHT22;15074;50.940;5.282;2022-07-06T03:05:49;11.40;99.90
27667;DHT22;15074;50.940;5.282;2022-07-06T03:08:15;11.30;99.90
27667;DHT22;15074;50.940;5.282;2022-07-06T03:10:41;11.30;99.90
27667;DHT22;15074;50.940;5.282;2022-07-06T03:13:07;11.20;99.90
27667;DHT22;15074;50.940;5.282;2022-07-06T03:15:32;11.10;99.90
27667;DHT22;15074;50.940;5.282;2022-07-06T03:17:58;11.10;99.90
27667;DHT22;15074;50.940;5.282;2022-07-06T03:20:23;11.10;99.90
27667;DHT22;15074;50.940;5.282;2022-07-06T03:22:49;11.20;99.90
27667;DHT22;15074;50.940;5.282;2022-07-06T03:25:14;11.10;99.90
27667;DHT22;15074;50.940;5.282;2022-07-06T03:27:40;11.10;99.90
27667;DHT22;15074;50.940;5.282;2022-07-06T03:30:06;11.10;99.90
27667;DHT22;15074;50.940;5.282;2022-07-06T03:32:32;10.80;99.90
27667;DHT22;15074;50.940;5.282;2022-07-06T03:34:57;10.80;99.90
27667;DHT22;15074;50.940;5.282;2022-07-06T03:37:23;10.80;99.90
27667;DHT22;15074;50.940;5.282;2022-07-06T03:39:49;10.60;99.90
27667;DHT22;15074;50.940;5.282;2022-07-06T03:42:14;10.40;99.90
27667;DHT22;15074;50.940;5.282;2022-07-06T03:44:40;10.30;99.90
27667;DHT22;15074;50.940;5.282;2022-07-06T03:47:05;10.20;99.90
27667;DHT22;15074;50.940;5.282;2022-07-06T03:49:31;10.10;99.90
27667;DHT22;15074;50.940;5.282;2022-07-06T03:51:56;10.10;99.90
27667;DHT22;15074;50.940;5.282;2022-07-06T03:54:22;10.10;99.90
27667;DHT22;15074;50.940;5.282;2022-07-06T03:56:48;10.20;99.90
27667;DHT22;15074;50.940;5.282;2022-07-06T03:59:13;10.30;99.90
27667;DHT22;15074;50.940;5.282;2022-07-06T04:01:40;10.30;99.90
27667;DHT22;15074;50.940;5.282;2022-07-06T04:04:05;10.40;99.90
27667;DHT22;15074;50.940;5.282;2022-07-06T04:06:31;10.20;99.90
27667;DHT22;15074;50.940;5.282;2022-07-06T04:08:59;10.30;99.90
27667;DHT22;15074;50.940;5.282;2022-07-06T04:11:25;10.30;99.90
27667;DHT22;15074;50.940;5.282;2022-07-06T04:13:51;10.30;99.90
27667;DHT22;15074;50.940;5.282;2022-07-06T04:16:16;10.30;99.90
27667;DHT22;15074;50.940;5.282;2022-07-06T04:18:42;10.40;99.90
27667;DHT22;15074;50.940;5.282;2022-07-06T04:21:07;10.40;99.90
27667;DHT22;15074;50.940;5.282;2022-07-06T04:23:33;10.50;99.90
27667;DHT22;15074;50.940;5.282;2022-07-06T04:25:59;10.50;99.90
27667;DHT22;15074;50.940;5.282;2022-07-06T04:28:24;10.50;99.90
27667;DHT22;15074;50.940;5.282;2022-07-06T04:30:50;10.60;99.90
27667;DHT22;15074;50.940;5.282;2022-07-06T04:33:16;10.60;99.90
27667;DHT22;15074;50.940;5.282;2022-07-06T04:35:42;10.70;99.90
27667;DHT22;15074;50.940;5.282;2022-07-06T04:38:07;10.80;99.90
27667;DHT22;15074;50.940;5.282;2022-07-06T04:40:33;10.90;99.90
27667;DHT22;15074;50.940;5.282;2022-07-06T04:42:59;11.10;99.90
27667;DHT22;15074;50.940;5.282;2022-07-06T04:45:25;11.50;99.90
27667;DHT22;15074;50.940;5.282;2022-07-06T04:47:50;12.20;99.90
27667;DHT22;15074;50.940;5.282;2022-07-06T04:50:16;12.90;99.90
27667;DHT22;15074;50.940;5.282;2022-07-06T04:52:41;13.40;99.90
27667;DHT22;15074;50.940;5.282;2022-07-06T04:55:07;14.20;99.90
27667;DHT22;15074;50.940;5.282;2022-07-06T04:57:34;14.90;99.90
27667;DHT22;15074;50.940;5.282;2022-07-06T05:00:00;15.40;99.90
27667;DHT22;15074;50.940;5.282;2022-07-06T05:02:26;16.00;99.90
27667;DHT22;15074;50.940;5.282;2022-07-06T05:04:52;16.50;99.90
27667;DHT22;15074;50.940;5.282;2022-07-06T05:07:18;16.50;99.90
27667;DHT22;15074;50.940;5.282;2022-07-06T05:09:43;16.70;99.90
27667;DHT22;15074;50.940;5.282;2022-07-06T05:12:09;16.80;99.90
27667;DHT22;15074;50.940;5.282;2022-07-06T05:14:36;16.80;99.90
27667;DHT22;15074;50.940;5.282;2022-07-06T05:17:02;16.40;99.90
27667;DHT22;15074;50.940;5.282;2022-07-06T05:19:28;16.30;99.90
27667;DHT22;15074;50.940;5.282;2022-07-06T05:21:53;16.40;99.90
27667;DHT22;15074;50.940;5.282;2022-07-06T05:24:19;16.70;99.90
27667;DHT22;15074;50.940;5.282;2022-07-06T05:26:45;16.50;99.90
27667;DHT22;15074;50.940;5.282;2022-07-06T05:29:11;17.20;99.90
27667;DHT22;15074;50.940;5.282;2022-07-06T05:31:37;17.70;99.90
27667;DHT22;15074;50.940;5.282;2022-07-06T05:34:02;17.30;99.90
27667;DHT22;15074;50.940;5.282;2022-07-06T05:36:28;16.70;99.90
27667;DHT22;15074;50.940;5.282;2022-07-06T05:38:54;16.30;99.90
27667;DHT22;15074;50.940;5.282;2022-07-06T05:41:20;16.40;99.90
27667;DHT22;15074;50.940;5.282;2022-07-06T05:43:45;16.70;99.90
27667;DHT22;15074;50.940;5.282;2022-07-06T05:46:11;17.50;99.90
27667;DHT22;15074;50.940;5.282;2022-07-06T05:48:36;17.30;99.90
27667;DHT22;15074;50.940;5.282;2022-07-06T05:51:21;17.20;99.90
27667;DHT22;15074;50.940;5.282;2022-07-06T05:53:46;17.30;99.90
27667;DHT22;15074;50.940;5.282;2022-07-06T05:56:13;16.90;99.90
27667;DHT22;15074;50.940;5.282;2022-07-06T05:58:38;16.50;99.90
27667;DHT22;15074;50.940;5.282;2022-07-06T06:01:04;16.20;99.90
27667;DHT22;15074;50.940;5.282;2022-07-06T06:03:32;16.00;99.90
27667;DHT22;15074;50.940;5.282;2022-07-06T06:05:58;15.80;99.90
27667;DHT22;15074;50.940;5.282;2022-07-06T06:08:24;15.80;99.90
27667;DHT22;15074;50.940;5.282;2022-07-06T06:10:49;16.00;99.90
27667;DHT22;15074;50.940;5.282;2022-07-06T06:13:15;16.50;99.90
27667;DHT22;15074;50.940;5.282;2022-07-06T06:15:40;17.30;99.90
27667;DHT22;15074;50.940;5.282;2022-07-06T06:18:06;17.70;99.90
27667;DHT22;15074;50.940;5.282;2022-07-06T06:20:32;17.70;99.90
27667;DHT22;15074;50.940;5.282;2022-07-06T06:22:58;17.50;99.90
27667;DHT22;15074;50.940;5.282;2022-07-06T06:25:32;17.90;99.90
27667;DHT22;15074;50.940;5.282;2022-07-06T06:27:59;18.80;99.90
27667;DHT22;15074;50.940;5.282;2022-07-06T06:30:25;19.80;99.90
27667;DHT22;15074;50.940;5.282;2022-07-06T06:32:51;20.30;99.90
27667;DHT22;15074;50.940;5.282;2022-07-06T06:35:17;21.60;99.90
27667;DHT22;15074;50.940;5.282;2022-07-06T06:37:42;22.40;99.90
27667;DHT22;15074;50.940;5.282;2022-07-06T06:40:09;22.10;99.90
27667;DHT22;15074;50.940;5.282;2022-07-06T06:42:38;21.40;99.90
27667;DHT22;15074;50.940;5.282;2022-07-06T06:45:05;20.50;99.90
27667;DHT22;15074;50.940;5.282;2022-07-06T06:47:30;20.60;99.90
27667;DHT22;15074;50.940;5.282;2022-07-06T06:49:56;20.40;99.90
27667;DHT22;15074;50.940;5.282;2022-07-06T06:52:22;20.60;99.90
27667;DHT22;15074;50.940;5.282;2022-07-06T06:54:47;19.90;99.90
27667;DHT22;15074;50.940;5.282;2022-07-06T06:57:13;20.50;99.90
27667;DHT22;15074;50.940;5.282;2022-07-06T06:59:38;21.10;99.90
27667;DHT22;15074;50.940;5.282;2022-07-06T07:02:04;22.40;99.90
27667;DHT22;15074;50.940;5.282;2022-07-06T07:04:30;22.60;99.90
27667;DHT22;15074;50.940;5.282;2022-07-06T07:06:56;21.70;99.90
27667;DHT22;15074;50.940;5.282;2022-07-06T07:09:22;21.00;99.90
27667;DHT22;15074;50.940;5.282;2022-07-06T07:11:47;21.70;99.90
27667;DHT22;15074;50.940;5.282;2022-07-06T07:14:13;23.00;99.90
27667;DHT22;15074;50.940;5.282;2022-07-06T07:16:38;23.00;99.90
27667;DHT22;15074;50.940;5.282;2022-07-06T07:19:04;23.60;99.90
27667;DHT22;15074;50.940;5.282;2022-07-06T07:21:30;24.60;99.90
27667;DHT22;15074;50.940;5.282;2022-07-06T07:23:55;24.60;99.90
27667;DHT22;15074;50.940;5.282;2022-07-06T07:26:21;24.90;99.90
27667;DHT22;15074;50.940;5.282;2022-07-06T07:28:46;24.90;99.90
27667;DHT22;15074;50.940;5.282;2022-07-06T07:31:12;25.70;99.90
27667;DHT22;15074;50.940;5.282;2022-07-06T07:33:38;26.60;99.00
27667;DHT22;15074;50.940;5.282;2022-07-06T07:36:04;27.70;97.30
27667;DHT22;15074;50.940;5.282;2022-07-06T07:38:30;28.30;96.00
27667;DHT22;15074;50.940;5.282;2022-07-06T07:40:55;28.20;95.60
27667;DHT22;15074;50.940;5.282;2022-07-06T07:43:21;28.20;92.90
27667;DHT22;15074;50.940;5.282;2022-07-06T07:45:47;28.70;93.00
27667;DHT22;15074;50.940;5.282;2022-07-06T07:48:13;29.10;91.40
27667;DHT22;15074;50.940;5.282;2022-07-06T07:50:40;28.90;91.80
27667;DHT22;15074;50.940;5.282;2022-07-06T07:53:06;29.00;91.00
27667;DHT22;15074;50.940;5.282;2022-07-06T07:55:32;28.30;90.30
27667;DHT22;15074;50.940;5.282;2022-07-06T07:57:57;28.10;90.60
27667;DHT22;15074;50.940;5.282;2022-07-06T08:00:23;28.60;89.40
27667;DHT22;15074;50.940;5.282;2022-07-06T08:02:50;28.40;88.30
27667;DHT22;15074;50.940;5.282;2022-07-06T08:05:15;27.20;89.40
27667;DHT22;15074;50.940;5.282;2022-07-06T08:07:42;27.00;91.00
27667;DHT22;15074;50.940;5.282;2022-07-06T08:10:08;26.80;90.70
27667;DHT22;15074;50.940;5.282;2022-07-06T08:12:36;25.80;90.50
27667;DHT22;15074;50.940;5.282;2022-07-06T08:15:03;25.30;92.10
27667;DHT22;15074;50.940;5.282;2022-07-06T08:17:29;25.60;92.80
27667;DHT22;15074;50.940;5.282;2022-07-06T08:19:55;26.30;92.10
27667;DHT22;15074;50.940;5.282;2022-07-06T08:22:21;26.00;91.70
27667;DHT22;15074;50.940;5.282;2022-07-06T08:24:46;26.60;91.30
27667;DHT22;15074;50.940;5.282;2022-07-06T08:27:12;26.80;90.70
27667;DHT22;15074;50.940;5.282;2022-07-06T08:29:37;26.60;89.40
27667;DHT22;15074;50.940;5.282;2022-07-06T08:32:03;26.30;88.70
27667;DHT22;15074;50.940;5.282;2022-07-06T08:34:29;26.40;87.90
27667;DHT22;15074;50.940;5.282;2022-07-06T08:36:55;26.90;88.20
27667;DHT22;15074;50.940;5.282;2022-07-06T08:39:20;27.60;85.10
27667;DHT22;15074;50.940;5.282;2022-07-06T08:41:47;28.30;80.60
27667;DHT22;15074;50.940;5.282;2022-07-06T08:44:15;29.40;79.90
27667;DHT22;15074;50.940;5.282;2022-07-06T08:46:41;29.70;79.50
27667;DHT22;15074;50.940;5.282;2022-07-06T08:49:08;29.20;80.40
27667;DHT22;15074;50.940;5.282;2022-07-06T08:51:37;29.70;79.40
27667;DHT22;15074;50.940;5.282;2022-07-06T08:54:03;30.10;75.10
27667;DHT22;15074;50.940;5.282;2022-07-06T08:56:29;29.50;76.20
27667;DHT22;15074;50.940;5.282;2022-07-06T08:58:55;29.90;75.90
27667;DHT22;15074;50.940;5.282;2022-07-06T09:01:21;30.30;74.30
27667;DHT22;15074;50.940;5.282;2022-07-06T09:03:49;30.60;73.20
27667;DHT22;15074;50.940;5.282;2022-07-06T09:06:16;30.60;73.20
27667;DHT22;15074;50.940;5.282;2022-07-06T09:08:45;29.90;74.80
27667;DHT22;15074;50.940;5.282;2022-07-06T09:11:12;29.90;73.60
27667;DHT22;15074;50.940;5.282;2022-07-06T09:13:37;30.00;72.70
27667;DHT22;15074;50.940;5.282;2022-07-06T09:16:14;29.40;73.10
27667;DHT22;15074;50.940;5.282;2022-07-06T09:18:44;29.40;74.00
27667;DHT22;15074;50.940;5.282;2022-07-06T09:21:10;28.90;76.00
27667;DHT22;15074;50.940;5.282;2022-07-06T09:23:37;28.90;75.80
27667;DHT22;15074;50.940;5.282;2022-07-06T09:26:05;28.90;75.60
27667;DHT22;15074;50.940;5.282;2022-07-06T09:28:44;29.70;74.60
27667;DHT22;15074;50.940;5.282;2022-07-06T09:31:10;28.20;76.90
27667;DHT22;15074;50.940;5.282;2022-07-06T09:33:37;27.60;76.90
27667;DHT22;15074;50.940;5.282;2022-07-06T09:36:04;27.40;78.50
27667;DHT22;15074;50.940;5.282;2022-07-06T09:38:31;27.10;77.30
27667;DHT22;15074;50.940;5.282;2022-07-06T09:40:57;26.40;77.70
27667;DHT22;15074;50.940;5.282;2022-07-06T09:43:24;26.40;79.10
27667;DHT22;15074;50.940;5.282;2022-07-06T09:45:55;27.30;78.70
27667;DHT22;15074;50.940;5.282;2022-07-06T09:48:26;27.40;78.20
27667;DHT22;15074;50.940;5.282;2022-07-06T09:50:57;27.00;80.10
27667;DHT22;15074;50.940;5.282;2022-07-06T09:53:25;27.10;79.70
27667;DHT22;15074;50.940;5.282;2022-07-06T09:55:55;27.30;79.20
27667;DHT22;15074;50.940;5.282;2022-07-06T09:58:22;28.40;77.40
27667;DHT22;15074;50.940;5.282;2022-07-06T10:00:48;28.70;75.20
27667;DHT22;15074;50.940;5.282;2022-07-06T10:03:15;29.50;75.70
27667;DHT22;15074;50.940;5.282;2022-07-06T10:05:44;29.70;74.10
27667;DHT22;15074;50.940;5.282;2022-07-06T10:08:13;29.70;73.70
27667;DHT22;15074;50.940;5.282;2022-07-06T10:10:40;29.10;73.30
27667;DHT22;15074;50.940;5.282;2022-07-06T10:13:08;29.00;74.70
27667;DHT22;15074;50.940;5.282;2022-07-06T10:15:35;28.40;75.50
27667;DHT22;15074;50.940;5.282;2022-07-06T10:18:03;27.20;77.80
27667;DHT22;15074;50.940;5.282;2022-07-06T10:20:30;26.40;79.90
27667;DHT22;15074;50.940;5.282;2022-07-06T10:22:58;26.50;79.70
27667;DHT22;15074;50.940;5.282;2022-07-06T10:25:25;26.80;79.20
27667;DHT22;15074;50.940;5.282;2022-07-06T10:27:52;26.10;80.00
27667;DHT22;15074;50.940;5.282;2022-07-06T10:30:18;25.30;80.90
27667;DHT22;15074;50.940;5.282;2022-07-06T10:32:47;25.10;83.20
27667;DHT22;15074;50.940;5.282;2022-07-06T10:35:14;25.80;84.30
27667;DHT22;15074;50.940;5.282;2022-07-06T10:37:40;26.90;80.60
27667;DHT22;15074;50.940;5.282;2022-07-06T10:40:06;26.50;81.70
27667;DHT22;15074;50.940;5.282;2022-07-06T10:43:02;26.10;80.00
27667;DHT22;15074;50.940;5.282;2022-07-06T10:48:16;26.70;79.80
27667;DHT22;15074;50.940;5.282;2022-07-06T10:53:13;27.40;79.60
27667;DHT22;15074;50.940;5.282;2022-07-06T10:55:42;28.10;79.70
27667;DHT22;15074;50.940;5.282;2022-07-06T10:58:08;28.00;79.00
27667;DHT22;15074;50.940;5.282;2022-07-06T11:00:52;28.10;78.20
27667;DHT22;15074;50.940;5.282;2022-07-06T11:03:31;27.70;78.40
27667;DHT22;15074;50.940;5.282;2022-07-06T11:06:07;28.50;78.70
27667;DHT22;15074;50.940;5.282;2022-07-06T11:08:56;28.50;77.60
27667;DHT22;15074;50.940;5.282;2022-07-06T11:11:42;29.20;75.60
27667;DHT22;15074;50.940;5.282;2022-07-06T11:14:16;29.90;75.20
27667;DHT22;15074;50.940;5.282;2022-07-06T11:19:19;30.70;72.40
27667;DHT22;15074;50.940;5.282;2022-07-06T11:24:25;30.20;73.20
27667;DHT22;15074;50.940;5.282;2022-07-06T11:26:52;29.50;74.10
27667;DHT22;15074;50.940;5.282;2022-07-06T11:29:20;29.50;73.70
27667;DHT22;15074;50.940;5.282;2022-07-06T11:31:48;28.20;75.40
27667;DHT22;15074;50.940;5.282;2022-07-06T11:34:27;27.10;77.20
27667;DHT22;15074;50.940;5.282;2022-07-06T11:37:10;27.80;78.00
27667;DHT22;15074;50.940;5.282;2022-07-06T11:39:37;28.00;77.90
27667;DHT22;15074;50.940;5.282;2022-07-06T11:42:08;27.80;77.90
27667;DHT22;15074;50.940;5.282;2022-07-06T11:44:34;27.60;77.70
27667;DHT22;15074;50.940;5.282;2022-07-06T11:47:00;26.90;76.80
27667;DHT22;15074;50.940;5.282;2022-07-06T11:49:29;25.30;80.80
27667;DHT22;15074;50.940;5.282;2022-07-06T11:51:55;25.80;82.00
27667;DHT22;15074;50.940;5.282;2022-07-06T11:54:22;26.80;80.90
27667;DHT22;15074;50.940;5.282;2022-07-06T11:56:50;28.20;79.20
27667;DHT22;15074;50.940;5.282;2022-07-06T11:59:21;28.50;76.30
27667;DHT22;15074;50.940;5.282;2022-07-06T12:01:46;28.60;76.10
27667;DHT22;15074;50.940;5.282;2022-07-06T12:04:12;29.00;76.20
27667;DHT22;15074;50.940;5.282;2022-07-06T12:06:38;29.30;75.00
27667;DHT22;15074;50.940;5.282;2022-07-06T12:09:04;28.90;74.40
27667;DHT22;15074;50.940;5.282;2022-07-06T12:13:58;27.10;79.70
27667;DHT22;15074;50.940;5.282;2022-07-06T12:16:31;26.70;78.60
27667;DHT22;15074;50.940;5.282;2022-07-06T12:18:58;26.40;82.70
27667;DHT22;15074;50.940;5.282;2022-07-06T12:21:24;26.70;78.90
27667;DHT22;15074;50.940;5.282;2022-07-06T12:23:53;27.10;78.50
27667;DHT22;15074;50.940;5.282;2022-07-06T12:26:21;26.90;78.90
27667;DHT22;15074;50.940;5.282;2022-07-06T12:29:08;27.30;77.90
27667;DHT22;15074;50.940;5.282;2022-07-06T12:34:22;29.00;77.50
27667;DHT22;15074;50.940;5.282;2022-07-06T12:36:50;29.50;76.50
27667;DHT22;15074;50.940;5.282;2022-07-06T12:39:19;29.70;74.30
27667;DHT22;15074;50.940;5.282;2022-07-06T12:41:50;29.80;73.60
27667;DHT22;15074;50.940;5.282;2022-07-06T12:44:18;28.90;74.70
27667;DHT22;15074;50.940;5.282;2022-07-06T12:46:44;26.90;78.40
27667;DHT22;15074;50.940;5.282;2022-07-06T12:49:22;25.30;82.50
27667;DHT22;15074;50.940;5.282;2022-07-06T12:54:16;27.40;79.50
27667;DHT22;15074;50.940;5.282;2022-07-06T12:57:05;28.30;78.50
27667;DHT22;15074;50.940;5.282;2022-07-06T12:59:42;29.20;76.30
27667;DHT22;15074;50.940;5.282;2022-07-06T13:02:16;30.20;75.70
27667;DHT22;15074;50.940;5.282;2022-07-06T13:04:43;29.10;75.30
27667;DHT22;15074;50.940;5.282;2022-07-06T13:07:17;28.20;75.40
27667;DHT22;15074;50.940;5.282;2022-07-06T13:09:44;28.10;76.40
27667;DHT22;15074;50.940;5.282;2022-07-06T13:12:10;27.50;77.50
27667;DHT22;15074;50.940;5.282;2022-07-06T13:14:36;26.80;80.60
27667;DHT22;15074;50.940;5.282;2022-07-06T13:17:02;25.80;81.90
27667;DHT22;15074;50.940;5.282;2022-07-06T13:19:27;25.20;86.20
27667;DHT22;15074;50.940;5.282;2022-07-06T13:21:53;26.00;86.00
27667;DHT22;15074;50.940;5.282;2022-07-06T13:24:19;27.10;83.20
27667;DHT22;15074;50.940;5.282;2022-07-06T13:26:44;27.20;81.90
27667;DHT22;15074;50.940;5.282;2022-07-06T13:29:11;27.10;81.60
27667;DHT22;15074;50.940;5.282;2022-07-06T13:31:38;26.20;83.00
27667;DHT22;15074;50.940;5.282;2022-07-06T13:34:05;26.10;81.70
27667;DHT22;15074;50.940;5.282;2022-07-06T13:36:32;25.90;84.70
27667;DHT22;15074;50.940;5.282;2022-07-06T13:38:57;26.30;86.10
27667;DHT22;15074;50.940;5.282;2022-07-06T13:41:23;27.10;84.10
27667;DHT22;15074;50.940;5.282;2022-07-06T13:43:49;26.70;84.30
27667;DHT22;15074;50.940;5.282;2022-07-06T13:46:15;26.90;84.70
27667;DHT22;15074;50.940;5.282;2022-07-06T13:48:42;26.80;84.20
27667;DHT22;15074;50.940;5.282;2022-07-06T13:51:08;27.40;82.20
27667;DHT22;15074;50.940;5.282;2022-07-06T13:53:34;28.00;81.80
27667;DHT22;15074;50.940;5.282;2022-07-06T13:56:00;27.90;81.20
27667;DHT22;15074;50.940;5.282;2022-07-06T13:58:26;28.00;79.90
27667;DHT22;15074;50.940;5.282;2022-07-06T14:00:52;28.00;79.20
27667;DHT22;15074;50.940;5.282;2022-07-06T14:03:17;27.70;81.20
27667;DHT22;15074;50.940;5.282;2022-07-06T14:05:43;27.90;79.70
27667;DHT22;15074;50.940;5.282;2022-07-06T14:08:08;27.90;80.00
27667;DHT22;15074;50.940;5.282;2022-07-06T14:10:34;28.10;80.50
27667;DHT22;15074;50.940;5.282;2022-07-06T14:13:00;27.50;78.50
27667;DHT22;15074;50.940;5.282;2022-07-06T14:15:26;27.40;81.00
27667;DHT22;15074;50.940;5.282;2022-07-06T14:17:51;27.00;78.50
27667;DHT22;15074;50.940;5.282;2022-07-06T14:20:17;27.30;82.00
27667;DHT22;15074;50.940;5.282;2022-07-06T14:22:43;28.40;78.30
27667;DHT22;15074;50.940;5.282;2022-07-06T14:25:09;27.80;80.20
27667;DHT22;15074;50.940;5.282;2022-07-06T14:27:35;27.50;80.70
27667;DHT22;15074;50.940;5.282;2022-07-06T14:30:01;27.00;80.80
27667;DHT22;15074;50.940;5.282;2022-07-06T14:32:28;27.20;80.60
27667;DHT22;15074;50.940;5.282;2022-07-06T14:34:54;27.10;81.40
27667;DHT22;15074;50.940;5.282;2022-07-06T14:37:20;27.20;82.40
27667;DHT22;15074;50.940;5.282;2022-07-06T14:39:45;27.00;80.70
27667;DHT22;15074;50.940;5.282;2022-07-06T14:42:12;26.70;82.50
27667;DHT22;15074;50.940;5.282;2022-07-06T14:44:38;26.40;83.90
27667;DHT22;15074;50.940;5.282;2022-07-06T14:47:04;26.40;83.60
27667;DHT22;15074;50.940;5.282;2022-07-06T14:49:30;26.60;85.00
27667;DHT22;15074;50.940;5.282;2022-07-06T14:51:55;26.60;83.40
27667;DHT22;15074;50.940;5.282;2022-07-06T14:54:23;27.10;82.30
27667;DHT22;15074;50.940;5.282;2022-07-06T14:56:49;26.90;83.20
27667;DHT22;15074;50.940;5.282;2022-07-06T14:59:14;26.60;83.70
27667;DHT22;15074;50.940;5.282;2022-07-06T15:01:40;26.80;82.50
27667;DHT22;15074;50.940;5.282;2022-07-06T15:04:06;26.90;83.40
27667;DHT22;15074;50.940;5.282;2022-07-06T15:06:32;26.60;83.00
27667;DHT22;15074;50.940;5.282;2022-07-06T15:08:57;26.70;82.00
27667;DHT22;15074;50.940;5.282;2022-07-06T15:11:23;26.60;81.10
27667;DHT22;15074;50.940;5.282;2022-07-06T15:13:48;25.40;85.60
27667;DHT22;15074;50.940;5.282;2022-07-06T15:16:14;25.30;87.20
27667;DHT22;15074;50.940;5.282;2022-07-06T15:18:40;25.70;87.60
27667;DHT22;15074;50.940;5.282;2022-07-06T15:21:05;25.90;86.30
27667;DHT22;15074;50.940;5.282;2022-07-06T15:23:31;25.90;87.20
27667;DHT22;15074;50.940;5.282;2022-07-06T15:25:56;26.00;85.20
27667;DHT22;15074;50.940;5.282;2022-07-06T15:28:24;26.10;85.00
27667;DHT22;15074;50.940;5.282;2022-07-06T15:30:52;26.20;85.50
27667;DHT22;15074;50.940;5.282;2022-07-06T15:33:18;26.40;84.50
27667;DHT22;15074;50.940;5.282;2022-07-06T15:35:44;25.80;86.10
27667;DHT22;15074;50.940;5.282;2022-07-06T15:38:09;26.10;85.60
27667;DHT22;15074;50.940;5.282;2022-07-06T15:40:38;26.60;85.90
27667;DHT22;15074;50.940;5.282;2022-07-06T15:43:10;26.60;84.20
27667;DHT22;15074;50.940;5.282;2022-07-06T15:45:36;25.50;86.10